createdAt,value
2018-07-10T06:56:48.658Z,15.60
2018-07-10T06:59:17.299Z,16.00
2018-07-10T07:01:46.881Z,15.90
2018-07-10T07:04:15.476Z,16.00
2018-07-10T07:06:44.030Z,16.10
2018-07-10T07:09:13.531Z,16.10
2018-07-10T07:11:44.146Z,16.20
2018-07-10T07:14:14.423Z,16.10
2018-07-10T07:16:43.080Z,16.10
2018-07-10T07:19:12.668Z,16.10
2018-07-10T07:21:41.379Z,15.90
2018-07-10T07:24:09.966Z,15.80
2018-07-10T07:26:39.084Z,15.80
2018-07-10T07:29:08.494Z,15.80
2018-07-10T07:31:37.169Z,15.90
2018-07-10T07:34:07.552Z,16.00
2018-07-10T07:36:36.088Z,16.10
2018-07-10T07:39:05.563Z,16.20
2018-07-10T07:41:34.471Z,16.20
2018-07-10T07:44:04.163Z,16.10
2018-07-10T07:46:33.195Z,16.00
2018-07-10T07:49:03.566Z,15.90
2018-07-10T07:51:34.443Z,15.70
2018-07-10T07:54:06.631Z,15.70
2018-07-10T07:56:36.505Z,15.60
2018-07-10T07:59:05.282Z,15.60
2018-07-10T08:01:35.016Z,15.70
2018-07-10T08:04:05.712Z,15.60
2018-07-10T08:06:34.227Z,15.60
2018-07-10T08:09:05.818Z,15.50
2018-07-10T08:11:35.566Z,15.40
2018-07-10T08:14:05.229Z,15.30
2018-07-10T08:16:35.960Z,15.20
2018-07-10T08:19:06.068Z,15.10
2018-07-10T08:21:35.068Z,15.20
2018-07-10T08:24:03.755Z,15.20
2018-07-10T08:26:33.011Z,15.30
2018-07-10T08:29:02.682Z,15.30
2018-07-10T08:31:32.526Z,15.30
2018-07-10T08:34:01.282Z,15.30
2018-07-10T08:36:31.055Z,15.30
2018-07-10T08:39:00.662Z,15.40
2018-07-10T08:41:38.198Z,15.50
2018-07-10T08:44:07.680Z,15.50
2018-07-10T08:46:37.686Z,15.50
2018-07-10T08:49:08.545Z,15.50
2018-07-10T08:51:38.491Z,15.60
2018-07-10T08:54:07.865Z,15.50
2018-07-10T08:56:38.302Z,15.40
2018-07-10T08:59:07.958Z,15.40
2018-07-10T09:01:38.402Z,15.50
2018-07-10T09:04:07.591Z,15.50
2018-07-10T09:06:36.874Z,15.40
2018-07-10T09:09:06.020Z,15.40
2018-07-10T09:11:34.712Z,15.50
2018-07-10T09:14:04.055Z,15.60
2018-07-10T09:16:33.700Z,15.60
2018-07-10T09:19:02.900Z,15.60
2018-07-10T09:21:32.426Z,15.70
2018-07-10T09:24:01.112Z,15.70
2018-07-10T09:26:30.506Z,15.90
2018-07-10T09:29:00.041Z,16.10
2018-07-10T09:31:28.738Z,16.20
2018-07-10T09:33:57.367Z,16.20
2018-07-10T09:36:26.003Z,16.00
2018-07-10T09:38:56.405Z,15.90
2018-07-10T09:41:24.990Z,16.00
2018-07-10T09:43:54.690Z,16.00
2018-07-10T09:46:24.726Z,15.90
2018-07-10T09:48:54.928Z,15.80
2018-07-10T09:51:25.083Z,15.80
2018-07-10T09:53:55.451Z,15.80
2018-07-10T09:56:24.707Z,15.70
2018-07-10T09:58:54.983Z,15.70
2018-07-10T10:01:27.816Z,15.60
2018-07-10T10:03:57.755Z,15.60
2018-07-10T10:06:26.450Z,15.60
2018-07-10T10:08:55.825Z,15.60
2018-07-10T10:11:24.518Z,15.60
2018-07-10T10:13:54.101Z,15.70
2018-07-10T10:16:23.687Z,15.70
2018-07-10T10:18:57.651Z,15.90
2018-07-10T10:21:27.283Z,16.00
2018-07-10T10:23:58.072Z,16.00
2018-07-10T10:26:28.496Z,16.00
2018-07-10T10:28:57.418Z,16.00
2018-07-10T10:31:28.132Z,16.10
2018-07-10T10:33:57.103Z,16.10
2018-07-10T10:36:26.345Z,16.00
2018-07-10T10:38:57.074Z,16.00
2018-07-10T10:41:27.511Z,16.00
2018-07-10T10:43:59.235Z,16.00
2018-07-10T10:46:27.962Z,16.00
2018-07-10T10:48:56.556Z,16.00
2018-07-10T10:51:26.494Z,16.00
2018-07-10T10:53:56.626Z,15.90
2018-07-10T10:56:25.655Z,15.90
2018-07-10T10:58:54.422Z,16.10
2018-07-10T11:01:23.745Z,16.40
2018-07-10T11:03:54.400Z,16.80
2018-07-10T11:06:24.471Z,16.90
2018-07-10T11:08:53.936Z,17.20
2018-07-10T11:11:22.703Z,17.30
2018-07-10T11:13:52.772Z,17.30
2018-07-10T11:16:22.342Z,17.50
2018-07-10T11:18:57.726Z,17.80
2018-07-10T11:22:30.893Z,18.20
2018-07-10T11:25:05.912Z,18.60
2018-07-10T11:30:18.079Z,19.20
2018-07-10T11:32:48.188Z,19.40
2018-07-10T11:35:17.425Z,20.00
2018-07-10T11:37:49.604Z,20.30
2018-07-10T11:40:18.401Z,20.50
2018-07-10T11:42:49.658Z,20.60
2018-07-10T11:45:18.972Z,20.30
2018-07-10T11:47:49.098Z,20.00
2018-07-10T11:50:18.838Z,19.80
2018-07-10T11:52:50.779Z,19.70
2018-07-10T11:55:19.386Z,19.40
2018-07-10T11:57:49.479Z,19.10
2018-07-10T12:00:18.739Z,18.90
2018-07-10T12:05:21.954Z,18.90
2018-07-10T12:07:55.416Z,19.30
2018-07-10T12:10:27.786Z,19.90
2018-07-10T12:12:58.775Z,20.20
2018-07-10T12:15:30.506Z,20.80
2018-07-10T12:18:00.187Z,20.90
2018-07-10T12:20:40.401Z,21.30
2018-07-10T12:23:10.839Z,21.70
2018-07-10T12:25:41.205Z,21.90
2018-07-10T12:28:17.305Z,21.80
2018-07-10T12:30:46.958Z,21.80
2018-07-10T12:33:15.545Z,21.90
2018-07-10T12:35:44.682Z,21.80
2018-07-10T12:38:13.806Z,21.90
2018-07-10T12:40:42.356Z,22.40
2018-07-10T12:43:11.374Z,23.10
2018-07-10T12:45:39.904Z,23.70
2018-07-10T12:48:08.442Z,24.10
2018-07-10T12:50:37.008Z,23.90
2018-07-10T12:53:06.356Z,23.30
2018-07-10T12:55:36.079Z,22.70
2018-07-10T12:58:04.933Z,22.30
2018-07-10T13:00:37.266Z,22.50
2018-07-10T13:03:07.695Z,22.60
2018-07-10T13:06:09.308Z,22.80
2018-07-10T13:08:37.820Z,22.40
2018-07-10T13:11:06.456Z,22.00
2018-07-10T13:13:35.162Z,22.30
2018-07-10T13:16:03.666Z,22.70
2018-07-10T13:18:34.918Z,23.50
2018-07-10T13:21:03.528Z,24.30
2018-07-10T13:23:32.028Z,25.10
2018-07-10T13:26:00.579Z,24.50
2018-07-10T13:28:31.703Z,23.90
2018-07-10T13:31:03.376Z,23.10
2018-07-10T13:33:35.112Z,22.40
2018-07-10T13:36:05.301Z,21.90
2018-07-10T13:38:34.625Z,21.40
2018-07-10T13:41:03.912Z,21.10
2018-07-10T13:43:32.583Z,20.70
2018-07-10T13:46:01.683Z,20.50
2018-07-10T13:48:30.489Z,20.20
2018-07-10T13:53:28.125Z,19.70
2018-07-10T13:55:57.536Z,19.50
2018-07-10T13:58:31.417Z,19.20
2018-07-10T14:01:03.012Z,18.80
2018-07-10T14:03:32.696Z,18.60
2018-07-10T14:06:02.741Z,18.40
2018-07-10T14:08:35.173Z,18.20
2018-07-10T14:11:05.768Z,18.10
2018-07-10T14:13:50.282Z,18.10
2018-07-10T14:16:22.276Z,18.20
2018-07-10T14:18:54.366Z,18.40
2018-07-10T14:21:24.917Z,18.50
2018-07-10T14:23:57.396Z,18.90
2018-07-10T14:26:27.361Z,19.00
2018-07-10T14:29:00.241Z,19.10
2018-07-10T14:31:32.515Z,19.30
2018-07-10T14:34:04.102Z,19.70
2018-07-10T14:36:33.274Z,20.20
2018-07-10T14:39:05.130Z,20.90
2018-07-10T14:41:34.324Z,22.80
2018-07-10T14:44:06.692Z,24.50
2018-07-10T14:46:35.382Z,25.50
2018-07-10T14:49:05.585Z,28.00
2018-07-10T14:51:43.430Z,31.30
2018-07-10T14:54:14.522Z,32.80
2018-07-10T14:56:44.107Z,35.20
2018-07-10T14:59:12.756Z,39.90
2018-07-10T15:01:41.961Z,44.10
2018-07-10T15:04:10.876Z,47.00
2018-07-10T15:06:39.586Z,48.10
2018-07-10T15:09:09.670Z,44.20
2018-07-10T15:11:38.911Z,40.40
2018-07-10T15:14:10.673Z,37.30
2018-07-10T15:16:45.654Z,35.10
2018-07-10T15:19:16.777Z,33.70
2018-07-10T15:21:47.314Z,32.60
2018-07-10T15:24:16.023Z,32.00
2018-07-10T15:27:10.154Z,29.40
2018-07-10T15:29:41.435Z,29.20
2018-07-10T15:32:11.173Z,28.20
2018-07-10T15:34:42.831Z,27.00
2018-07-10T15:37:11.410Z,26.30
2018-07-10T15:39:41.373Z,25.60
2018-07-10T15:42:10.760Z,25.00
2018-07-10T15:44:39.566Z,24.70
2018-07-10T15:47:11.448Z,25.10
2018-07-10T15:49:41.433Z,25.30
2018-07-10T15:52:12.147Z,25.30
2018-07-10T15:54:40.816Z,25.20
2018-07-10T15:57:09.731Z,25.10
2018-07-10T15:59:38.472Z,25.00
2018-07-10T16:02:09.240Z,25.10
2018-07-10T16:04:40.813Z,27.30
2018-07-10T16:07:10.263Z,27.30
2018-07-10T16:09:39.069Z,27.00
2018-07-10T16:12:08.698Z,27.00
2018-07-10T16:14:39.008Z,26.70
2018-07-10T16:17:16.308Z,26.70
2018-07-10T16:19:46.234Z,30.70
2018-07-10T16:25:07.317Z,38.10
2018-07-10T16:27:42.611Z,36.10
2018-07-10T16:30:12.935Z,33.80
2018-07-10T16:32:43.113Z,31.60
2018-07-10T16:35:13.309Z,30.00
2018-07-10T16:37:45.536Z,28.40
2018-07-10T16:40:16.852Z,27.30
2018-07-10T16:42:48.089Z,26.60
2018-07-10T16:45:29.999Z,26.10
2018-07-10T16:50:12.108Z,25.80
2018-07-10T16:52:51.494Z,25.70
2018-07-10T16:55:24.781Z,33.00
2018-07-10T16:57:53.929Z,36.30
2018-07-10T17:00:23.705Z,36.60
2018-07-10T17:02:54.449Z,35.20
2018-07-10T17:05:23.743Z,33.80
2018-07-10T17:07:54.178Z,31.30
2018-07-10T17:10:22.997Z,29.20
2018-07-10T17:15:19.895Z,25.70
2018-07-10T17:17:48.432Z,24.60
2018-07-10T17:20:18.368Z,23.80
2018-07-10T17:22:47.564Z,23.30
2018-07-10T17:25:16.962Z,22.90
2018-07-10T17:27:46.547Z,24.40
2018-07-10T17:30:16.141Z,23.80
2018-07-10T17:32:44.720Z,23.50
2018-07-10T17:35:13.291Z,23.60
2018-07-10T17:37:47.100Z,23.60
2018-07-10T17:40:16.302Z,23.40
2018-07-10T17:42:46.126Z,23.10
2018-07-10T17:45:21.035Z,22.80
2018-07-10T17:47:50.027Z,22.50
2018-07-10T17:50:18.692Z,22.10
2018-07-10T17:52:47.272Z,21.70
2018-07-10T17:55:15.991Z,21.40
2018-07-10T17:57:44.530Z,21.10
2018-07-10T18:00:13.807Z,20.80
2018-07-10T18:02:42.986Z,20.50
2018-07-10T18:05:11.555Z,20.30
2018-07-10T18:07:40.240Z,20.10
2018-07-10T18:10:09.483Z,19.90
2018-07-10T18:12:38.158Z,19.70
2018-07-10T18:15:06.894Z,19.50
2018-07-10T18:17:35.515Z,19.30
2018-07-10T18:20:04.555Z,19.10
2018-07-10T18:22:33.763Z,18.90
2018-07-10T18:25:02.273Z,18.70
2018-07-10T18:27:30.870Z,18.60
2018-07-10T18:29:59.531Z,18.40
2018-07-10T18:32:28.152Z,18.30
2018-07-10T18:34:58.388Z,18.10
2018-07-10T18:37:26.987Z,18.00
2018-07-10T18:39:56.073Z,17.90
2018-07-10T18:42:24.757Z,17.80
2018-07-10T18:44:53.670Z,17.70
2018-07-10T18:47:22.646Z,17.60
2018-07-10T18:49:53.150Z,17.50
2018-07-10T18:52:25.887Z,17.40
2018-07-10T18:54:54.978Z,17.30
2018-07-10T18:58:32.883Z,17.20
2018-07-10T19:02:26.319Z,17.10
2018-07-10T19:05:02.180Z,17.00
2018-07-10T19:07:31.520Z,16.80
2018-07-10T19:10:01.295Z,16.70
2018-07-10T19:12:29.866Z,16.60
2018-07-10T19:15:00.080Z,16.50
2018-07-10T19:17:30.798Z,16.40
2018-07-10T19:20:08.751Z,16.30
2018-07-10T19:23:00.333Z,16.20
2018-07-10T19:25:28.954Z,16.20
2018-07-10T19:27:59.756Z,16.00
2018-07-10T19:30:52.677Z,15.90
2018-07-10T19:33:22.847Z,15.90
2018-07-10T19:35:52.471Z,15.70
2018-07-10T19:38:21.125Z,15.70
2018-07-10T19:40:49.760Z,15.60
2018-07-10T19:43:19.535Z,15.50
2018-07-10T19:45:48.459Z,15.50
2018-07-10T19:48:17.766Z,15.40
2018-07-10T19:50:46.884Z,15.30
2018-07-10T19:53:16.118Z,15.20
2018-07-10T19:55:45.851Z,15.20
2018-07-10T19:58:25.404Z,15.20
2018-07-10T20:00:58.225Z,15.20
2018-07-10T20:03:36.887Z,15.30
2018-07-10T20:06:10.756Z,15.40
2018-07-10T20:08:44.824Z,15.50
2018-07-10T20:11:14.415Z,15.50
2018-07-10T20:13:48.268Z,15.60
2018-07-10T20:16:31.341Z,15.50
2018-07-10T20:19:08.741Z,15.40
2018-07-10T20:22:47.933Z,15.30
2018-07-10T20:25:55.866Z,15.20
2018-07-10T20:29:06.197Z,15.10
2018-07-10T20:31:43.444Z,14.90
2018-07-10T20:34:28.678Z,14.80
2018-07-10T20:36:57.245Z,14.70
2018-07-10T20:39:34.557Z,14.70
2018-07-10T20:42:03.316Z,14.70
2018-07-10T20:44:39.723Z,14.60
2018-07-10T20:47:09.658Z,14.60
2018-07-10T20:49:52.592Z,14.60
2018-07-10T20:52:27.837Z,14.50
2018-07-10T20:55:03.959Z,14.40
2018-07-10T20:58:10.152Z,14.40
2018-07-10T21:00:40.988Z,14.30
2018-07-10T21:03:19.794Z,14.20
2018-07-10T21:05:50.137Z,14.20
2018-07-10T21:08:38.641Z,14.10
2018-07-10T21:11:14.808Z,14.00
2018-07-10T21:13:53.487Z,14.00
2018-07-10T21:16:33.014Z,13.90
2018-07-10T21:20:14.994Z,13.80
2018-07-10T21:22:57.593Z,13.70
2018-07-10T21:26:32.192Z,13.70
2018-07-10T21:29:10.012Z,13.60
2018-07-10T21:31:48.252Z,13.50
2018-07-10T21:34:22.785Z,13.40
2018-07-10T21:36:58.532Z,13.40
2018-07-10T21:39:35.444Z,13.30
2018-07-10T21:43:10.268Z,13.30
2018-07-10T21:45:50.017Z,13.20
2018-07-10T21:48:31.432Z,13.20
2018-07-10T21:51:00.038Z,13.20
2018-07-10T21:53:28.627Z,13.20
2018-07-10T21:55:57.433Z,13.10
2018-07-10T21:58:25.993Z,13.10
2018-07-10T22:02:04.411Z,13.10
2018-07-10T22:04:35.268Z,13.10
2018-07-10T22:07:10.818Z,13.10
2018-07-10T22:09:40.825Z,13.10
2018-07-10T22:12:11.897Z,13.10
2018-07-10T22:14:41.587Z,13.00
2018-07-10T22:17:21.772Z,13.00
2018-07-10T22:19:51.785Z,13.00
2018-07-10T22:22:21.988Z,13.00
2018-07-10T22:24:52.710Z,12.90
2018-07-10T22:27:23.801Z,12.90
2018-07-10T22:30:08.052Z,12.80
2018-07-10T22:32:45.876Z,12.80
2018-07-10T22:35:17.253Z,12.70
2018-07-10T22:37:48.135Z,12.70
2018-07-10T22:40:18.854Z,12.70
2018-07-10T22:42:50.831Z,12.70
2018-07-10T22:45:21.896Z,12.80
2018-07-10T22:48:01.138Z,13.00
2018-07-10T22:50:41.936Z,13.10
2018-07-10T22:53:13.557Z,13.30
2018-07-10T22:55:44.675Z,13.40
2018-07-10T22:58:13.334Z,13.50
2018-07-10T23:00:41.973Z,13.60
2018-07-10T23:03:21.716Z,13.70
2018-07-10T23:05:52.751Z,13.70
2018-07-10T23:08:32.187Z,13.60
2018-07-10T23:11:02.757Z,13.50
2018-07-10T23:13:32.379Z,13.40
2018-07-10T23:16:00.919Z,13.20
2018-07-10T23:18:29.495Z,13.10
2018-07-10T23:20:58.972Z,13.10
2018-07-10T23:23:27.893Z,13.10
